Terminal Aerodrome Forecast
Issued by NWS Missoula, MT

Home | Current Version | Previous Version | Text Only | Print | Product List | Glossary On
Versions: 1 2 3 4 5 6 7 8 9 10 11 12 13 14 15 16 17
000
FTUS45 KMSO 220520
TAFBTM
TAF
KBTM 220520Z 2206/2306 VRB05KT P6SM SKC
     FM220800 16005KT P6SM BKN050
     FM221300 16005KT P6SM VCSH SCT020 OVC050
      TEMPO 2215/2219 3SM -SN=

USA.gov is the U.S. government's official web portal to all federal, state and local government web resources and services.